sensor_id;sensor_type;location;lat;lon;timestamp;P1;durP1;ratioP1;P2;durP2;ratioP2
43487;SDS011;29078;41.932;25.554;2022-11-20T00:01:04;11.63;;;4.82;;
43487;SDS011;29078;41.932;25.554;2022-11-20T00:03:33;11.60;;;4.18;;
43487;SDS011;29078;41.932;25.554;2022-11-20T00:05:59;12.65;;;4.35;;
43487;SDS011;29078;41.932;25.554;2022-11-20T00:08:26;10.68;;;4.32;;
43487;SDS011;29078;41.932;25.554;2022-11-20T00:10:51;14.38;;;4.20;;
43487;SDS011;29078;41.932;25.554;2022-11-20T00:13:16;10.35;;;4.80;;
43487;SDS011;29078;41.932;25.554;2022-11-20T00:15:42;10.00;;;4.57;;
43487;SDS011;29078;41.932;25.554;2022-11-20T00:18:07;11.73;;;4.45;;
43487;SDS011;29078;41.932;25.554;2022-11-20T00:20:33;12.98;;;4.13;;
43487;SDS011;29078;41.932;25.554;2022-11-20T00:22:58;14.05;;;4.32;;
43487;SDS011;29078;41.932;25.554;2022-11-20T00:25:24;13.00;;;4.72;;
43487;SDS011;29078;41.932;25.554;2022-11-20T00:27:49;10.40;;;4.25;;
43487;SDS011;29078;41.932;25.554;2022-11-20T00:30:15;18.02;;;4.63;;
43487;SDS011;29078;41.932;25.554;2022-11-20T00:32:40;9.48;;;3.97;;
43487;SDS011;29078;41.932;25.554;2022-11-20T00:35:06;14.02;;;4.43;;
43487;SDS011;29078;41.932;25.554;2022-11-20T00:37:31;11.45;;;4.03;;
43487;SDS011;29078;41.932;25.554;2022-11-20T00:39:57;12.93;;;4.10;;
43487;SDS011;29078;41.932;25.554;2022-11-20T00:42:22;10.98;;;4.20;;
43487;SDS011;29078;41.932;25.554;2022-11-20T00:44:48;19.42;;;4.68;;
43487;SDS011;29078;41.932;25.554;2022-11-20T00:47:13;16.45;;;4.38;;
43487;SDS011;29078;41.932;25.554;2022-11-20T00:49:38;13.65;;;4.35;;
43487;SDS011;29078;41.932;25.554;2022-11-20T00:52:04;16.48;;;4.55;;
43487;SDS011;29078;41.932;25.554;2022-11-20T00:54:29;14.98;;;4.57;;
43487;SDS011;29078;41.932;25.554;2022-11-20T00:56:55;12.70;;;3.88;;
43487;SDS011;29078;41.932;25.554;2022-11-20T00:59:20;11.98;;;4.10;;
43487;SDS011;29078;41.932;25.554;2022-11-20T01:01:45;14.48;;;4.88;;
43487;SDS011;29078;41.932;25.554;2022-11-20T01:04:11;14.63;;;4.05;;
43487;SDS011;29078;41.932;25.554;2022-11-20T01:06:36;13.23;;;4.13;;
43487;SDS011;29078;41.932;25.554;2022-11-20T01:09:05;14.68;;;4.13;;
43487;SDS011;29078;41.932;25.554;2022-11-20T01:11:33;13.95;;;5.10;;
43487;SDS011;29078;41.932;25.554;2022-11-20T01:14:01;14.18;;;3.80;;
43487;SDS011;29078;41.932;25.554;2022-11-20T01:16:30;10.77;;;3.97;;
43487;SDS011;29078;41.932;25.554;2022-11-20T01:19:00;11.35;;;4.18;;
43487;SDS011;29078;41.932;25.554;2022-11-20T01:21:31;12.85;;;4.10;;
43487;SDS011;29078;41.932;25.554;2022-11-20T01:23:59;15.73;;;4.20;;
43487;SDS011;29078;41.932;25.554;2022-11-20T01:26:29;13.18;;;3.88;;
43487;SDS011;29078;41.932;25.554;2022-11-20T01:28:57;16.15;;;4.32;;
43487;SDS011;29078;41.932;25.554;2022-11-20T01:31:24;13.82;;;3.95;;
43487;SDS011;29078;41.932;25.554;2022-11-20T01:33:56;13.70;;;4.18;;
43487;SDS011;29078;41.932;25.554;2022-11-20T01:36:24;12.63;;;3.95;;
43487;SDS011;29078;41.932;25.554;2022-11-20T01:38:56;13.07;;;3.85;;
43487;SDS011;29078;41.932;25.554;2022-11-20T01:41:24;10.90;;;3.97;;
43487;SDS011;29078;41.932;25.554;2022-11-20T01:44:10;14.35;;;3.70;;
43487;SDS011;29078;41.932;25.554;2022-11-20T01:46:42;12.00;;;3.50;;
43487;SDS011;29078;41.932;25.554;2022-11-20T01:49:23;10.98;;;3.40;;
43487;SDS011;29078;41.932;25.554;2022-11-20T01:51:52;14.68;;;3.33;;
43487;SDS011;29078;41.932;25.554;2022-11-20T01:54:46;14.90;;;3.80;;
43487;SDS011;29078;41.932;25.554;2022-11-20T01:57:12;12.20;;;4.05;;
43487;SDS011;29078;41.932;25.554;2022-11-20T01:59:40;14.85;;;4.20;;
43487;SDS011;29078;41.932;25.554;2022-11-20T02:02:10;10.45;;;3.60;;
43487;SDS011;29078;41.932;25.554;2022-11-20T02:04:35;12.73;;;3.88;;
43487;SDS011;29078;41.932;25.554;2022-11-20T02:07:02;11.90;;;4.07;;
43487;SDS011;29078;41.932;25.554;2022-11-20T02:09:29;13.20;;;4.07;;
43487;SDS011;29078;41.932;25.554;2022-11-20T02:11:55;13.65;;;3.88;;
43487;SDS011;29078;41.932;25.554;2022-11-20T02:14:22;12.90;;;3.55;;
43487;SDS011;29078;41.932;25.554;2022-11-20T02:16:48;12.15;;;3.70;;
43487;SDS011;29078;41.932;25.554;2022-11-20T02:19:28;10.88;;;4.07;;
43487;SDS011;29078;41.932;25.554;2022-11-20T02:24:27;11.68;;;3.65;;
43487;SDS011;29078;41.932;25.554;2022-11-20T02:26:53;13.10;;;3.88;;
43487;SDS011;29078;41.932;25.554;2022-11-20T02:29:32;10.48;;;3.58;;
43487;SDS011;29078;41.932;25.554;2022-11-20T02:32:03;10.25;;;3.58;;
43487;SDS011;29078;41.932;25.554;2022-11-20T02:34:28;13.15;;;3.55;;
43487;SDS011;29078;41.932;25.554;2022-11-20T02:36:54;8.50;;;3.60;;
43487;SDS011;29078;41.932;25.554;2022-11-20T02:39:21;14.32;;;3.70;;
43487;SDS011;29078;41.932;25.554;2022-11-20T02:41:50;11.15;;;3.42;;
43487;SDS011;29078;41.932;25.554;2022-11-20T02:44:21;13.33;;;3.67;;
43487;SDS011;29078;41.932;25.554;2022-11-20T02:46:46;11.68;;;4.47;;
43487;SDS011;29078;41.932;25.554;2022-11-20T02:49:11;13.98;;;3.70;;
43487;SDS011;29078;41.932;25.554;2022-11-20T02:51:37;12.50;;;3.95;;
43487;SDS011;29078;41.932;25.554;2022-11-20T02:54:02;9.07;;;3.22;;
43487;SDS011;29078;41.932;25.554;2022-11-20T02:56:28;12.77;;;4.05;;
43487;SDS011;29078;41.932;25.554;2022-11-20T02:58:54;10.88;;;3.88;;
43487;SDS011;29078;41.932;25.554;2022-11-20T03:01:20;8.15;;;3.22;;
43487;SDS011;29078;41.932;25.554;2022-11-20T03:03:46;13.05;;;4.00;;
43487;SDS011;29078;41.932;25.554;2022-11-20T03:06:13;9.38;;;3.00;;
43487;SDS011;29078;41.932;25.554;2022-11-20T03:08:39;14.73;;;3.90;;
43487;SDS011;29078;41.932;25.554;2022-11-20T03:11:05;13.60;;;3.55;;
43487;SDS011;29078;41.932;25.554;2022-11-20T03:13:32;12.40;;;3.80;;
43487;SDS011;29078;41.932;25.554;2022-11-20T03:15:57;11.55;;;3.33;;
43487;SDS011;29078;41.932;25.554;2022-11-20T03:18:23;12.32;;;3.67;;
43487;SDS011;29078;41.932;25.554;2022-11-20T03:20:48;10.98;;;3.83;;
43487;SDS011;29078;41.932;25.554;2022-11-20T03:23:14;11.45;;;3.78;;
43487;SDS011;29078;41.932;25.554;2022-11-20T03:25:39;8.75;;;2.80;;
43487;SDS011;29078;41.932;25.554;2022-11-20T03:28:05;15.73;;;3.30;;
43487;SDS011;29078;41.932;25.554;2022-11-20T03:30:30;13.15;;;3.15;;
43487;SDS011;29078;41.932;25.554;2022-11-20T03:32:56;10.57;;;3.00;;
43487;SDS011;29078;41.932;25.554;2022-11-20T03:35:21;13.32;;;3.53;;
43487;SDS011;29078;41.932;25.554;2022-11-20T03:37:46;13.57;;;3.42;;
43487;SDS011;29078;41.932;25.554;2022-11-20T03:40:12;11.77;;;3.28;;
43487;SDS011;29078;41.932;25.554;2022-11-20T03:42:37;10.95;;;2.90;;
43487;SDS011;29078;41.932;25.554;2022-11-20T03:45:16;19.20;;;3.75;;
43487;SDS011;29078;41.932;25.554;2022-11-20T03:47:42;8.50;;;2.92;;
43487;SDS011;29078;41.932;25.554;2022-11-20T03:50:08;8.85;;;2.92;;
43487;SDS011;29078;41.932;25.554;2022-11-20T03:52:35;9.07;;;3.20;;
43487;SDS011;29078;41.932;25.554;2022-11-20T03:55:00;8.95;;;2.90;;
43487;SDS011;29078;41.932;25.554;2022-11-20T03:57:26;12.93;;;3.47;;
43487;SDS011;29078;41.932;25.554;2022-11-20T03:59:51;10.30;;;3.08;;
43487;SDS011;29078;41.932;25.554;2022-11-20T04:02:17;11.27;;;3.83;;
43487;SDS011;29078;41.932;25.554;2022-11-20T04:04:42;13.52;;;3.67;;
43487;SDS011;29078;41.932;25.554;2022-11-20T04:07:07;11.38;;;3.40;;
43487;SDS011;29078;41.932;25.554;2022-11-20T04:09:33;10.25;;;3.38;;
43487;SDS011;29078;41.932;25.554;2022-11-20T04:11:58;10.43;;;3.10;;
43487;SDS011;29078;41.932;25.554;2022-11-20T04:14:24;10.98;;;3.28;;
43487;SDS011;29078;41.932;25.554;2022-11-20T04:16:49;8.70;;;3.03;;
43487;SDS011;29078;41.932;25.554;2022-11-20T04:19:15;13.63;;;3.85;;
43487;SDS011;29078;41.932;25.554;2022-11-20T04:21:44;13.32;;;3.88;;
43487;SDS011;29078;41.932;25.554;2022-11-20T04:24:09;12.18;;;4.45;;
43487;SDS011;29078;41.932;25.554;2022-11-20T04:26:36;12.02;;;3.58;;
43487;SDS011;29078;41.932;25.554;2022-11-20T04:29:02;11.82;;;3.67;;
43487;SDS011;29078;41.932;25.554;2022-11-20T04:31:29;11.25;;;3.45;;
43487;SDS011;29078;41.932;25.554;2022-11-20T04:33:58;9.15;;;3.53;;
43487;SDS011;29078;41.932;25.554;2022-11-20T04:36:28;8.48;;;3.42;;
43487;SDS011;29078;41.932;25.554;2022-11-20T04:38:55;9.32;;;3.58;;
43487;SDS011;29078;41.932;25.554;2022-11-20T04:41:25;10.90;;;3.80;;
43487;SDS011;29078;41.932;25.554;2022-11-20T04:43:54;10.73;;;3.75;;
43487;SDS011;29078;41.932;25.554;2022-11-20T04:46:50;10.10;;;3.50;;
43487;SDS011;29078;41.932;25.554;2022-11-20T04:49:15;12.30;;;4.20;;
43487;SDS011;29078;41.932;25.554;2022-11-20T04:51:40;10.40;;;3.17;;
43487;SDS011;29078;41.932;25.554;2022-11-20T04:54:06;12.88;;;3.78;;
43487;SDS011;29078;41.932;25.554;2022-11-20T04:56:31;11.15;;;4.25;;
43487;SDS011;29078;41.932;25.554;2022-11-20T04:58:59;12.95;;;3.50;;
43487;SDS011;29078;41.932;25.554;2022-11-20T05:01:25;12.15;;;4.18;;
43487;SDS011;29078;41.932;25.554;2022-11-20T05:03:51;12.77;;;3.67;;
43487;SDS011;29078;41.932;25.554;2022-11-20T05:06:18;10.00;;;2.92;;
43487;SDS011;29078;41.932;25.554;2022-11-20T05:08:44;11.35;;;3.40;;
43487;SDS011;29078;41.932;25.554;2022-11-20T05:11:11;10.35;;;3.10;;
43487;SDS011;29078;41.932;25.554;2022-11-20T05:13:38;12.25;;;3.47;;
43487;SDS011;29078;41.932;25.554;2022-11-20T05:16:08;13.55;;;3.40;;
43487;SDS011;29078;41.932;25.554;2022-11-20T05:18:38;12.07;;;3.47;;
43487;SDS011;29078;41.932;25.554;2022-11-20T05:21:04;11.95;;;3.45;;
43487;SDS011;29078;41.932;25.554;2022-11-20T05:23:31;12.88;;;3.72;;
43487;SDS011;29078;41.932;25.554;2022-11-20T05:25:57;14.93;;;3.47;;
43487;SDS011;29078;41.932;25.554;2022-11-20T05:28:23;10.77;;;3.30;;
43487;SDS011;29078;41.932;25.554;2022-11-20T05:30:49;17.48;;;4.18;;
43487;SDS011;29078;41.932;25.554;2022-11-20T05:33:15;14.23;;;3.63;;
43487;SDS011;29078;41.932;25.554;2022-11-20T05:35:41;14.63;;;4.22;;
43487;SDS011;29078;41.932;25.554;2022-11-20T05:38:07;14.00;;;3.38;;
43487;SDS011;29078;41.932;25.554;2022-11-20T05:40:32;12.88;;;4.22;;
43487;SDS011;29078;41.932;25.554;2022-11-20T05:42:58;13.77;;;3.75;;
43487;SDS011;29078;41.932;25.554;2022-11-20T05:45:24;11.73;;;4.18;;
43487;SDS011;29078;41.932;25.554;2022-11-20T05:47:50;16.63;;;4.63;;
43487;SDS011;29078;41.932;25.554;2022-11-20T05:50:15;9.82;;;3.47;;
43487;SDS011;29078;41.932;25.554;2022-11-20T05:52:41;9.63;;;4.18;;
43487;SDS011;29078;41.932;25.554;2022-11-20T05:55:06;10.32;;;3.60;;
43487;SDS011;29078;41.932;25.554;2022-11-20T05:57:32;12.63;;;4.03;;
43487;SDS011;29078;41.932;25.554;2022-11-20T05:59:58;14.43;;;4.15;;
43487;SDS011;29078;41.932;25.554;2022-11-20T06:02:23;10.73;;;3.28;;
43487;SDS011;29078;41.932;25.554;2022-11-20T06:04:49;12.60;;;3.88;;
43487;SDS011;29078;41.932;25.554;2022-11-20T06:07:14;11.55;;;3.50;;
43487;SDS011;29078;41.932;25.554;2022-11-20T06:09:40;12.30;;;3.30;;
43487;SDS011;29078;41.932;25.554;2022-11-20T06:12:05;11.38;;;3.40;;
43487;SDS011;29078;41.932;25.554;2022-11-20T06:14:32;9.80;;;3.22;;
43487;SDS011;29078;41.932;25.554;2022-11-20T06:16:58;10.20;;;3.30;;
43487;SDS011;29078;41.932;25.554;2022-11-20T06:19:23;12.75;;;3.83;;
43487;SDS011;29078;41.932;25.554;2022-11-20T06:21:49;12.45;;;3.60;;
43487;SDS011;29078;41.932;25.554;2022-11-20T06:24:14;15.65;;;4.80;;
43487;SDS011;29078;41.932;25.554;2022-11-20T06:26:40;16.63;;;3.97;;
43487;SDS011;29078;41.932;25.554;2022-11-20T06:29:06;13.73;;;3.75;;
43487;SDS011;29078;41.932;25.554;2022-11-20T06:31:31;13.40;;;3.90;;
43487;SDS011;29078;41.932;25.554;2022-11-20T06:33:59;12.80;;;3.45;;
43487;SDS011;29078;41.932;25.554;2022-11-20T06:36:26;12.45;;;3.50;;
43487;SDS011;29078;41.932;25.554;2022-11-20T06:38:51;13.05;;;4.25;;
43487;SDS011;29078;41.932;25.554;2022-11-20T06:41:18;11.98;;;4.15;;
43487;SDS011;29078;41.932;25.554;2022-11-20T06:43:45;11.43;;;3.65;;
43487;SDS011;29078;41.932;25.554;2022-11-20T06:46:11;8.93;;;3.03;;
43487;SDS011;29078;41.932;25.554;2022-11-20T06:48:38;12.35;;;4.45;;
43487;SDS011;29078;41.932;25.554;2022-11-20T06:51:04;15.40;;;3.55;;
43487;SDS011;29078;41.932;25.554;2022-11-20T06:53:31;12.52;;;3.85;;
43487;SDS011;29078;41.932;25.554;2022-11-20T06:55:57;13.63;;;4.05;;
43487;SDS011;29078;41.932;25.554;2022-11-20T06:58:22;13.60;;;3.70;;
43487;SDS011;29078;41.932;25.554;2022-11-20T07:00:48;12.82;;;4.22;;
43487;SDS011;29078;41.932;25.554;2022-11-20T07:03:13;13.38;;;3.53;;
43487;SDS011;29078;41.932;25.554;2022-11-20T07:05:39;9.60;;;3.33;;
43487;SDS011;29078;41.932;25.554;2022-11-20T07:08:05;14.32;;;4.00;;
43487;SDS011;29078;41.932;25.554;2022-11-20T07:10:31;11.73;;;4.05;;
43487;SDS011;29078;41.932;25.554;2022-11-20T07:12:56;9.32;;;3.50;;
43487;SDS011;29078;41.932;25.554;2022-11-20T07:15:22;9.18;;;3.78;;
43487;SDS011;29078;41.932;25.554;2022-11-20T07:17:50;15.15;;;4.20;;
43487;SDS011;29078;41.932;25.554;2022-11-20T07:20:15;10.90;;;3.63;;
43487;SDS011;29078;41.932;25.554;2022-11-20T07:22:41;13.85;;;4.13;;
43487;SDS011;29078;41.932;25.554;2022-11-20T07:25:07;12.88;;;3.83;;
43487;SDS011;29078;41.932;25.554;2022-11-20T07:27:33;15.48;;;3.70;;
43487;SDS011;29078;41.932;25.554;2022-11-20T07:29:59;7.15;;;3.20;;
43487;SDS011;29078;41.932;25.554;2022-11-20T07:32:24;10.95;;;3.00;;
43487;SDS011;29078;41.932;25.554;2022-11-20T07:34:50;12.27;;;3.47;;
43487;SDS011;29078;41.932;25.554;2022-11-20T07:37:15;15.63;;;3.92;;
43487;SDS011;29078;41.932;25.554;2022-11-20T07:39:41;14.73;;;4.30;;
43487;SDS011;29078;41.932;25.554;2022-11-20T07:42:06;11.70;;;3.90;;
43487;SDS011;29078;41.932;25.554;2022-11-20T07:44:33;16.17;;;5.13;;
43487;SDS011;29078;41.932;25.554;2022-11-20T07:46:58;14.05;;;4.38;;
43487;SDS011;29078;41.932;25.554;2022-11-20T07:49:24;10.48;;;3.90;;
43487;SDS011;29078;41.932;25.554;2022-11-20T07:51:52;10.25;;;3.53;;
43487;SDS011;29078;41.932;25.554;2022-11-20T07:54:20;12.68;;;4.07;;
43487;SDS011;29078;41.932;25.554;2022-11-20T07:56:47;13.82;;;4.60;;
43487;SDS011;29078;41.932;25.554;2022-11-20T07:59:13;13.82;;;3.70;;
43487;SDS011;29078;41.932;25.554;2022-11-20T08:01:39;12.63;;;3.85;;
43487;SDS011;29078;41.932;25.554;2022-11-20T08:04:05;17.30;;;3.80;;
43487;SDS011;29078;41.932;25.554;2022-11-20T08:06:30;16.85;;;4.32;;
43487;SDS011;29078;41.932;25.554;2022-11-20T08:08:56;14.82;;;4.72;;
43487;SDS011;29078;41.932;25.554;2022-11-20T08:11:21;16.52;;;3.92;;
43487;SDS011;29078;41.932;25.554;2022-11-20T08:14:05;11.43;;;3.70;;
43487;SDS011;29078;41.932;25.554;2022-11-20T08:16:37;14.10;;;3.83;;
43487;SDS011;29078;41.932;25.554;2022-11-20T08:19:03;14.60;;;4.40;;
43487;SDS011;29078;41.932;25.554;2022-11-20T08:21:29;13.48;;;4.20;;
43487;SDS011;29078;41.932;25.554;2022-11-20T08:23:56;12.77;;;4.00;;
43487;SDS011;29078;41.932;25.554;2022-11-20T08:26:22;14.00;;;4.53;;
43487;SDS011;29078;41.932;25.554;2022-11-20T08:28:48;16.27;;;4.65;;
43487;SDS011;29078;41.932;25.554;2022-11-20T08:31:14;19.67;;;4.35;;
43487;SDS011;29078;41.932;25.554;2022-11-20T08:33:39;14.88;;;4.10;;
43487;SDS011;29078;41.932;25.554;2022-11-20T08:36:05;14.57;;;3.75;;
43487;SDS011;29078;41.932;25.554;2022-11-20T08:38:31;21.05;;;5.15;;
43487;SDS011;29078;41.932;25.554;2022-11-20T08:40:57;19.45;;;5.40;;
43487;SDS011;29078;41.932;25.554;2022-11-20T08:43:42;13.55;;;4.25;;
43487;SDS011;29078;41.932;25.554;2022-11-20T08:46:08;13.80;;;4.60;;
43487;SDS011;29078;41.932;25.554;2022-11-20T08:48:33;20.70;;;4.57;;
43487;SDS011;29078;41.932;25.554;2022-11-20T08:50:58;15.95;;;4.15;;
43487;SDS011;29078;41.932;25.554;2022-11-20T08:53:24;17.13;;;5.15;;
43487;SDS011;29078;41.932;25.554;2022-11-20T08:55:50;17.55;;;5.20;;
43487;SDS011;29078;41.932;25.554;2022-11-20T08:58:15;15.45;;;5.47;;
43487;SDS011;29078;41.932;25.554;2022-11-20T09:00:41;17.10;;;5.43;;
43487;SDS011;29078;41.932;25.554;2022-11-20T09:03:06;18.25;;;5.18;;
43487;SDS011;29078;41.932;25.554;2022-11-20T09:05:31;15.35;;;4.68;;
43487;SDS011;29078;41.932;25.554;2022-11-20T09:07:57;17.02;;;4.93;;
43487;SDS011;29078;41.932;25.554;2022-11-20T09:10:23;15.40;;;4.88;;
43487;SDS011;29078;41.932;25.554;2022-11-20T09:12:49;21.17;;;5.70;;
43487;SDS011;29078;41.932;25.554;2022-11-20T09:15:16;17.30;;;3.92;;
43487;SDS011;29078;41.932;25.554;2022-11-20T09:17:42;20.27;;;4.50;;
43487;SDS011;29078;41.932;25.554;2022-11-20T09:20:07;15.32;;;5.10;;
43487;SDS011;29078;41.932;25.554;2022-11-20T09:22:33;23.85;;;5.60;;
43487;SDS011;29078;41.932;25.554;2022-11-20T09:24:58;20.40;;;5.95;;
43487;SDS011;29078;41.932;25.554;2022-11-20T09:27:24;20.42;;;5.10;;
43487;SDS011;29078;41.932;25.554;2022-11-20T09:29:49;16.13;;;4.05;;
43487;SDS011;29078;41.932;25.554;2022-11-20T09:32:15;20.95;;;4.70;;
43487;SDS011;29078;41.932;25.554;2022-11-20T09:34:40;19.63;;;4.85;;
43487;SDS011;29078;41.932;25.554;2022-11-20T09:37:05;20.75;;;5.57;;
43487;SDS011;29078;41.932;25.554;2022-11-20T09:39:31;18.23;;;5.65;;
43487;SDS011;29078;41.932;25.554;2022-11-20T09:47:46;19.00;;;5.30;;
43487;SDS011;29078;41.932;25.554;2022-11-20T09:53:16;23.08;;;5.55;;
43487;SDS011;29078;41.932;25.554;2022-11-20T09:55:52;24.33;;;5.68;;
43487;SDS011;29078;41.932;25.554;2022-11-20T10:01:12;26.83;;;5.60;;
43487;SDS011;29078;41.932;25.554;2022-11-20T10:04:01;28.10;;;5.30;;
43487;SDS011;29078;41.932;25.554;2022-11-20T10:17:21;23.63;;;6.03;;
43487;SDS011;29078;41.932;25.554;2022-11-20T10:19:56;27.08;;;6.35;;
43487;SDS011;29078;41.932;25.554;2022-11-20T10:25:47;18.55;;;5.68;;
43487;SDS011;29078;41.932;25.554;2022-11-20T10:31:02;21.63;;;5.05;;
43487;SDS011;29078;41.932;25.554;2022-11-20T10:33:31;24.05;;;5.15;;
43487;SDS011;29078;41.932;25.554;2022-11-20T10:36:05;16.92;;;4.88;;
43487;SDS011;29078;41.932;25.554;2022-11-20T10:39:01;28.70;;;5.80;;
43487;SDS011;29078;41.932;25.554;2022-11-20T10:41:40;21.08;;;5.13;;
43487;SDS011;29078;41.932;25.554;2022-11-20T10:44:12;27.48;;;5.80;;
43487;SDS011;29078;41.932;25.554;2022-11-20T10:47:11;25.95;;;6.88;;
43487;SDS011;29078;41.932;25.554;2022-11-20T10:49:39;23.35;;;5.35;;
43487;SDS011;29078;41.932;25.554;2022-11-20T10:57:21;22.70;;;5.13;;
43487;SDS011;29078;41.932;25.554;2022-11-20T11:00:11;27.92;;;5.72;;
43487;SDS011;29078;41.932;25.554;2022-11-20T11:02:42;30.33;;;8.82;;
43487;SDS011;29078;41.932;25.554;2022-11-20T11:05:16;23.08;;;6.22;;
43487;SDS011;29078;41.932;25.554;2022-11-20T11:07:58;24.55;;;5.88;;
43487;SDS011;29078;41.932;25.554;2022-11-20T11:10:25;34.78;;;6.72;;
43487;SDS011;29078;41.932;25.554;2022-11-20T11:13:01;25.10;;;5.55;;
43487;SDS011;29078;41.932;25.554;2022-11-20T11:15:27;26.35;;;5.82;;
43487;SDS011;29078;41.932;25.554;2022-11-20T11:18:04;22.35;;;6.35;;
43487;SDS011;29078;41.932;25.554;2022-11-20T11:20:33;34.00;;;9.95;;
43487;SDS011;29078;41.932;25.554;2022-11-20T11:22:59;24.13;;;6.72;;
43487;SDS011;29078;41.932;25.554;2022-11-20T11:25:32;27.00;;;8.32;;
43487;SDS011;29078;41.932;25.554;2022-11-20T11:28:01;22.15;;;7.18;;
43487;SDS011;29078;41.932;25.554;2022-11-20T11:30:42;36.10;;;11.38;;
43487;SDS011;29078;41.932;25.554;2022-11-20T11:33:10;26.13;;;7.90;;
43487;SDS011;29078;41.932;25.554;2022-11-20T11:35:49;30.98;;;11.40;;
43487;SDS011;29078;41.932;25.554;2022-11-20T11:38:30;35.60;;;8.43;;
43487;SDS011;29078;41.932;25.554;2022-11-20T11:41:00;25.60;;;5.60;;
43487;SDS011;29078;41.932;25.554;2022-11-20T11:43:28;31.90;;;7.65;;
43487;SDS011;29078;41.932;25.554;2022-11-20T11:48:58;31.92;;;6.20;;
43487;SDS011;29078;41.932;25.554;2022-11-20T11:51:38;25.75;;;6.70;;
43487;SDS011;29078;41.932;25.554;2022-11-20T11:54:20;33.95;;;7.72;;
43487;SDS011;29078;41.932;25.554;2022-11-20T11:56:49;29.95;;;7.00;;
43487;SDS011;29078;41.932;25.554;2022-11-20T11:59:25;31.80;;;5.75;;
43487;SDS011;29078;41.932;25.554;2022-11-20T12:01:59;29.52;;;7.57;;
43487;SDS011;29078;41.932;25.554;2022-11-20T12:04:44;25.67;;;7.38;;
43487;SDS011;29078;41.932;25.554;2022-11-20T12:07:20;27.05;;;7.80;;
43487;SDS011;29078;41.932;25.554;2022-11-20T12:09:57;28.25;;;7.40;;
43487;SDS011;29078;41.932;25.554;2022-11-20T12:12:27;40.10;;;15.05;;
43487;SDS011;29078;41.932;25.554;2022-11-20T12:15:01;28.05;;;6.28;;
43487;SDS011;29078;41.932;25.554;2022-11-20T12:17:29;27.98;;;7.22;;
43487;SDS011;29078;41.932;25.554;2022-11-20T12:19:54;30.77;;;8.55;;
43487;SDS011;29078;41.932;25.554;2022-11-20T12:28:18;30.42;;;8.38;;
43487;SDS011;29078;41.932;25.554;2022-11-20T12:30:51;20.55;;;6.13;;
43487;SDS011;29078;41.932;25.554;2022-11-20T12:36:19;28.20;;;6.55;;
43487;SDS011;29078;41.932;25.554;2022-11-20T13:08:25;34.55;;;7.05;;
43487;SDS011;29078;41.932;25.554;2022-11-20T13:10:52;27.80;;;6.88;;
43487;SDS011;29078;41.932;25.554;2022-11-20T13:13:26;25.02;;;6.22;;
43487;SDS011;29078;41.932;25.554;2022-11-20T13:16:20;29.35;;;6.93;;
43487;SDS011;29078;41.932;25.554;2022-11-20T13:19:18;39.03;;;7.55;;
43487;SDS011;29078;41.932;25.554;2022-11-20T13:21:44;34.75;;;7.05;;
43487;SDS011;29078;41.932;25.554;2022-11-20T13:29:40;32.13;;;7.63;;
43487;SDS011;29078;41.932;25.554;2022-11-20T13:32:18;35.42;;;10.90;;
43487;SDS011;29078;41.932;25.554;2022-11-20T13:34:56;33.67;;;7.57;;
43487;SDS011;29078;41.932;25.554;2022-11-20T13:42:34;41.35;;;9.70;;
43487;SDS011;29078;41.932;25.554;2022-11-20T13:45:08;28.75;;;7.25;;
43487;SDS011;29078;41.932;25.554;2022-11-20T13:47:36;28.23;;;7.30;;
43487;SDS011;29078;41.932;25.554;2022-11-20T13:50:03;34.90;;;7.93;;
43487;SDS011;29078;41.932;25.554;2022-11-20T13:58:15;30.70;;;5.65;;
43487;SDS011;29078;41.932;25.554;2022-11-20T14:03:47;33.42;;;6.65;;
43487;SDS011;29078;41.932;25.554;2022-11-20T14:06:32;36.28;;;10.20;;
43487;SDS011;29078;41.932;25.554;2022-11-20T14:09:03;29.02;;;9.05;;
43487;SDS011;29078;41.932;25.554;2022-11-20T14:11:29;29.15;;;9.00;;
43487;SDS011;29078;41.932;25.554;2022-11-20T14:16:44;38.88;;;9.43;;
43487;SDS011;29078;41.932;25.554;2022-11-20T14:21:44;34.63;;;8.27;;
43487;SDS011;29078;41.932;25.554;2022-11-20T14:24:31;35.45;;;9.65;;
43487;SDS011;29078;41.932;25.554;2022-11-20T14:26:57;38.97;;;14.50;;
43487;SDS011;29078;41.932;25.554;2022-11-20T14:29:23;34.67;;;8.88;;
43487;SDS011;29078;41.932;25.554;2022-11-20T14:31:58;34.15;;;9.70;;
43487;SDS011;29078;41.932;25.554;2022-11-20T14:34:27;33.10;;;8.48;;
43487;SDS011;29078;41.932;25.554;2022-11-20T14:36:56;39.35;;;8.90;;
43487;SDS011;29078;41.932;25.554;2022-11-20T14:39:34;35.60;;;8.77;;
43487;SDS011;29078;41.932;25.554;2022-11-20T14:42:00;41.08;;;9.00;;
43487;SDS011;29078;41.932;25.554;2022-11-20T14:44:31;36.20;;;9.77;;
43487;SDS011;29078;41.932;25.554;2022-11-20T14:46:59;37.15;;;8.00;;
43487;SDS011;29078;41.932;25.554;2022-11-20T14:49:26;36.50;;;9.05;;
43487;SDS011;29078;41.932;25.554;2022-11-20T14:51:59;38.97;;;13.32;;
43487;SDS011;29078;41.932;25.554;2022-11-20T14:54:26;40.45;;;10.27;;
43487;SDS011;29078;41.932;25.554;2022-11-20T14:56:57;26.63;;;8.13;;
43487;SDS011;29078;41.932;25.554;2022-11-20T14:59:31;36.67;;;9.30;;
43487;SDS011;29078;41.932;25.554;2022-11-20T15:02:01;33.33;;;8.90;;
43487;SDS011;29078;41.932;25.554;2022-11-20T15:04:30;33.70;;;8.18;;
43487;SDS011;29078;41.932;25.554;2022-11-20T15:06:56;36.13;;;8.57;;
43487;SDS011;29078;41.932;25.554;2022-11-20T15:09:22;36.90;;;7.45;;
43487;SDS011;29078;41.932;25.554;2022-11-20T15:11:55;32.13;;;9.00;;
43487;SDS011;29078;41.932;25.554;2022-11-20T15:14:22;38.47;;;9.70;;
43487;SDS011;29078;41.932;25.554;2022-11-20T15:16:49;37.50;;;8.93;;
43487;SDS011;29078;41.932;25.554;2022-11-20T15:19:22;27.88;;;8.18;;
43487;SDS011;29078;41.932;25.554;2022-11-20T15:21:49;30.65;;;8.00;;
43487;SDS011;29078;41.932;25.554;2022-11-20T15:24:14;37.85;;;8.52;;
43487;SDS011;29078;41.932;25.554;2022-11-20T15:26:40;32.58;;;7.75;;
43487;SDS011;29078;41.932;25.554;2022-11-20T15:29:10;31.83;;;10.20;;
43487;SDS011;29078;41.932;25.554;2022-11-20T15:31:38;30.88;;;7.82;;
43487;SDS011;29078;41.932;25.554;2022-11-20T15:34:12;38.63;;;12.02;;
43487;SDS011;29078;41.932;25.554;2022-11-20T15:36:41;35.60;;;7.97;;
43487;SDS011;29078;41.932;25.554;2022-11-20T15:39:07;44.25;;;8.48;;
43487;SDS011;29078;41.932;25.554;2022-11-20T15:41:34;35.00;;;8.88;;
43487;SDS011;29078;41.932;25.554;2022-11-20T15:44:03;37.92;;;8.48;;
43487;SDS011;29078;41.932;25.554;2022-11-20T15:46:30;40.55;;;8.65;;
43487;SDS011;29078;41.932;25.554;2022-11-20T15:49:02;38.08;;;9.52;;
43487;SDS011;29078;41.932;25.554;2022-11-20T15:51:38;33.08;;;8.23;;
43487;SDS011;29078;41.932;25.554;2022-11-20T15:54:11;40.15;;;9.48;;
43487;SDS011;29078;41.932;25.554;2022-11-20T15:56:42;37.75;;;9.38;;
43487;SDS011;29078;41.932;25.554;2022-11-20T15:59:08;41.97;;;10.00;;
43487;SDS011;29078;41.932;25.554;2022-11-20T16:01:34;39.42;;;8.68;;
43487;SDS011;29078;41.932;25.554;2022-11-20T16:04:00;35.95;;;9.25;;
43487;SDS011;29078;41.932;25.554;2022-11-20T16:06:26;37.35;;;8.48;;
43487;SDS011;29078;41.932;25.554;2022-11-20T16:08:51;30.48;;;7.53;;
43487;SDS011;29078;41.932;25.554;2022-11-20T16:11:17;40.15;;;9.35;;